Terminal Aerodrome Forecast
Issued by NWS

Current Version | Previous Version | Text Only | Print | Product List | Glossary On
Versions: 1 2 3 4 5 6 7 8 9 10 11 12 13 14 15 16 17 18
000
FTUS41 KPBZ 301410 AAA
TAFBVI
TAF AMD
KBVI 301410Z 3014/0112 21005KT P6SM BKN006
     FM301430 22010KT P6SM BKN015
     FM301600 22010KT P6SM BKN025
     FM302000 22010G18KT P6SM VCTS BKN035CB
     FM010100 21005KT P6SM VCSH BKN100
      AMD NOT SKED=

USA.gov is the U.S. government's official web portal to all federal, state and local government web resources and services.